createdAt,value
2023-04-22T00:00:36.431Z,66.74
2023-04-22T00:03:05.129Z,66.71
2023-04-22T00:05:32.927Z,66.86
2023-04-22T00:08:00.953Z,66.75
2023-04-22T00:10:28.590Z,66.92
2023-04-22T00:12:57.548Z,66.98
2023-04-22T00:15:26.623Z,67.07
2023-04-22T00:17:54.374Z,66.97
2023-04-22T00:20:22.488Z,66.92
2023-04-22T00:22:50.150Z,66.82
2023-04-22T00:25:18.216Z,66.96
2023-04-22T00:27:45.896Z,66.89
2023-04-22T00:30:16.080Z,66.76
2023-04-22T00:32:43.774Z,66.84
2023-04-22T00:35:11.594Z,66.64
2023-04-22T00:37:39.318Z,66.73
2023-04-22T00:40:08.668Z,66.71
2023-04-22T00:42:38.038Z,66.79
2023-04-22T00:45:10.862Z,66.87
2023-04-22T00:47:39.990Z,66.74
2023-04-22T00:50:09.360Z,66.69
2023-04-22T00:52:37.184Z,66.73
2023-04-22T00:55:05.694Z,66.73
2023-04-22T00:57:34.815Z,66.59
2023-04-22T01:00:03.121Z,66.83
2023-04-22T01:02:31.557Z,66.67
2023-04-22T01:05:01.409Z,66.89
2023-04-22T01:07:29.562Z,66.76
2023-04-22T01:09:58.018Z,67.01
2023-04-22T01:12:25.737Z,66.65
2023-04-22T01:14:53.603Z,66.88
2023-04-22T01:17:21.867Z,66.57
2023-04-22T01:19:49.904Z,66.75
2023-04-22T01:22:19.999Z,67.06
2023-04-22T01:24:50.103Z,66.71
2023-04-22T01:27:18.179Z,67.08
2023-04-22T01:29:46.227Z,66.66
2023-04-22T01:32:14.145Z,67.01
2023-04-22T01:34:41.967Z,66.88
2023-04-22T01:37:09.925Z,67.08
2023-04-22T01:39:39.059Z,66.76
2023-04-22T01:42:08.908Z,66.89
2023-04-22T01:44:36.581Z,67.00
2023-04-22T01:47:04.719Z,66.64
2023-04-22T01:49:32.498Z,66.81
2023-04-22T01:52:00.477Z,66.63
2023-04-22T01:54:28.268Z,66.96
2023-04-22T01:56:58.617Z,66.84
2023-04-22T01:59:27.862Z,66.77
2023-04-22T02:01:55.630Z,67.08
2023-04-22T02:04:23.378Z,66.54
2023-04-22T02:06:51.104Z,66.82
2023-04-22T02:09:18.983Z,67.04
2023-04-22T02:11:46.763Z,66.99
2023-04-22T02:14:14.478Z,66.66
2023-04-22T02:16:44.104Z,66.85
2023-04-22T02:19:12.078Z,66.95
2023-04-22T02:21:41.190Z,66.99
2023-04-22T02:24:09.232Z,66.74
2023-04-22T02:26:36.961Z,66.83
2023-04-22T02:29:04.682Z,66.46
2023-04-22T02:31:32.432Z,66.76
2023-04-22T02:34:01.480Z,66.76
2023-04-22T02:36:29.127Z,66.79
2023-04-22T02:38:56.865Z,66.92
2023-04-22T02:41:24.565Z,66.59
2023-04-22T02:43:52.334Z,66.86
2023-04-22T02:46:20.206Z,66.67
2023-04-22T02:48:48.788Z,66.79
2023-04-22T02:51:17.979Z,67.05
2023-04-22T02:53:45.729Z,66.62
2023-04-22T02:56:13.577Z,66.77
2023-04-22T02:58:41.243Z,66.67
2023-04-22T03:01:09.106Z,66.67
2023-04-22T03:03:36.975Z,66.55
2023-04-22T03:06:05.295Z,66.75
2023-04-22T03:08:34.341Z,66.92
2023-04-22T03:11:02.042Z,66.86
2023-04-22T03:13:29.743Z,66.77
2023-04-22T03:15:57.547Z,66.92
2023-04-22T03:18:25.311Z,66.77
2023-04-22T03:20:52.980Z,66.53
2023-04-22T03:23:21.075Z,66.73
2023-04-22T03:25:50.258Z,66.67
2023-04-22T03:28:18.021Z,66.66
2023-04-22T03:30:45.943Z,66.73
2023-04-22T03:33:13.742Z,66.77
2023-04-22T03:35:41.522Z,66.76
2023-04-22T03:38:09.302Z,66.62
2023-04-22T03:40:37.153Z,67.22
2023-04-22T03:43:06.311Z,66.76
2023-04-22T03:45:34.551Z,66.95
2023-04-22T03:48:02.409Z,66.80
2023-04-22T03:50:30.309Z,66.52
2023-04-22T03:52:58.106Z,66.80
2023-04-22T03:55:25.977Z,66.92
2023-04-22T03:57:53.709Z,66.76
2023-04-22T04:00:22.909Z,66.74
2023-04-22T04:02:50.864Z,67.03
2023-04-22T04:05:18.882Z,66.73
2023-04-22T04:07:46.856Z,66.74
2023-04-22T04:10:14.544Z,66.92
2023-04-22T04:12:42.258Z,66.65
2023-04-22T04:15:10.539Z,66.62
2023-04-22T04:17:39.800Z,66.80
2023-04-22T04:20:08.849Z,66.73
2023-04-22T04:22:36.498Z,66.68
2023-04-22T04:25:04.551Z,66.66
2023-04-22T04:27:32.876Z,66.55
2023-04-22T04:30:04.321Z,66.59
2023-04-22T04:32:34.304Z,66.44
2023-04-22T04:35:03.563Z,66.71
2023-04-22T04:37:31.533Z,66.57
2023-04-22T04:39:59.813Z,66.69
2023-04-22T04:42:27.514Z,66.88
2023-04-22T04:44:58.453Z,66.90
2023-04-22T04:47:26.283Z,66.74
2023-04-22T04:49:54.504Z,66.55
2023-04-22T04:52:23.696Z,66.72
2023-04-22T04:54:51.462Z,66.79
2023-04-22T04:57:19.118Z,66.68
2023-04-22T04:59:46.804Z,66.75
2023-04-22T05:02:14.575Z,66.54
2023-04-22T05:04:42.673Z,66.83
2023-04-22T05:07:10.571Z,66.84
2023-04-22T05:09:39.930Z,66.55
2023-04-22T05:12:08.010Z,66.81
2023-04-22T05:14:36.054Z,66.69
2023-04-22T05:17:04.197Z,66.73
2023-04-22T05:19:31.846Z,66.73
2023-04-22T05:21:59.502Z,66.52
2023-04-22T05:24:27.344Z,66.75
2023-04-22T05:26:57.525Z,66.81
2023-04-22T05:29:25.220Z,66.92
2023-04-22T05:31:53.065Z,67.01
2023-04-22T05:34:20.832Z,66.84
2023-04-22T05:36:48.442Z,66.76
2023-04-22T05:39:16.315Z,66.85
2023-04-22T05:41:47.640Z,66.84
2023-04-22T05:44:17.598Z,66.78
2023-04-22T05:46:45.541Z,66.63
2023-04-22T05:49:13.168Z,66.45
2023-04-22T05:51:40.778Z,66.64
2023-04-22T05:54:08.410Z,66.49
2023-04-22T05:56:36.087Z,66.50
2023-04-22T05:59:03.702Z,66.59
2023-04-22T06:01:32.648Z,66.63
2023-04-22T06:04:00.599Z,66.40
2023-04-22T06:06:28.435Z,66.82
2023-04-22T06:08:56.060Z,66.74
2023-04-22T06:11:23.751Z,66.64
2023-04-22T06:13:51.414Z,66.95
2023-04-22T06:16:19.106Z,66.60
2023-04-22T06:18:48.071Z,66.78
2023-04-22T06:21:15.750Z,66.51
2023-04-22T06:23:43.905Z,66.92
2023-04-22T06:26:11.654Z,66.66
2023-04-22T06:28:39.829Z,66.73
2023-04-22T06:31:07.618Z,66.92
2023-04-22T06:33:35.480Z,66.96
2023-04-22T06:36:05.895Z,66.95
2023-04-22T06:38:33.603Z,67.17
2023-04-22T06:41:01.529Z,67.05
2023-04-22T06:43:29.230Z,66.80
2023-04-22T06:45:56.926Z,66.83
2023-04-22T06:48:24.840Z,67.00
2023-04-22T06:50:52.640Z,67.04
2023-04-22T06:53:21.705Z,66.95
2023-04-22T06:55:50.283Z,67.15
2023-04-22T06:58:17.997Z,67.16
2023-04-22T07:00:45.726Z,66.96
2023-04-22T07:03:13.690Z,67.00
2023-04-22T07:05:41.554Z,66.91
2023-04-22T07:08:09.389Z,67.22
2023-04-22T07:10:38.480Z,67.07
2023-04-22T07:13:06.389Z,67.17
2023-04-22T07:15:34.098Z,67.11
2023-04-22T07:18:01.841Z,67.05
2023-04-22T07:20:29.648Z,66.99
2023-04-22T07:22:57.402Z,67.23
2023-04-22T07:25:25.153Z,67.28
2023-04-22T07:27:54.238Z,67.08
2023-04-22T07:30:22.044Z,67.08
2023-04-22T07:32:49.778Z,67.18
2023-04-22T07:35:18.195Z,67.24
2023-04-22T07:37:46.089Z,67.04
2023-04-22T07:40:14.137Z,67.10
2023-04-22T07:42:42.095Z,67.33
2023-04-22T07:45:11.592Z,67.15
2023-04-22T07:47:39.587Z,67.17
2023-04-22T07:50:08.572Z,67.12
2023-04-22T07:52:36.443Z,65.65
2023-04-22T07:55:04.338Z,63.57
2023-04-22T07:57:36.177Z,63.81
2023-04-22T08:00:04.031Z,63.92
2023-04-22T08:02:33.193Z,63.96
2023-04-22T08:05:01.311Z,63.58
2023-04-22T08:07:33.100Z,63.02
2023-04-22T08:10:01.352Z,62.21
2023-04-22T08:12:29.063Z,61.16
2023-04-22T08:14:57.947Z,60.20
2023-04-22T08:17:25.755Z,58.84
2023-04-22T08:19:54.725Z,59.10
2023-04-22T08:22:23.849Z,59.87
2023-04-22T08:24:51.486Z,60.27
2023-04-22T08:27:19.709Z,61.16
2023-04-22T08:29:47.305Z,61.78
2023-04-22T08:32:14.893Z,62.40
2023-04-22T08:34:43.943Z,62.78
2023-04-22T08:37:13.334Z,62.75
2023-04-22T08:39:41.138Z,63.10
2023-04-22T08:42:09.303Z,62.94
2023-04-22T08:44:37.744Z,63.26
2023-04-22T08:47:05.884Z,63.33
2023-04-22T08:49:36.394Z,63.51
2023-04-22T08:52:04.190Z,63.67
2023-04-22T08:54:34.325Z,63.86
2023-04-22T08:57:02.501Z,64.03
2023-04-22T08:59:31.206Z,64.18
2023-04-22T09:01:59.753Z,64.21
2023-04-22T09:04:27.610Z,64.18
2023-04-22T09:06:55.182Z,64.63
2023-04-22T09:09:23.519Z,64.43
2023-04-22T09:11:52.491Z,64.32
2023-04-22T09:14:20.871Z,64.28
2023-04-22T09:16:49.584Z,64.56
2023-04-22T09:19:17.355Z,64.75
2023-04-22T09:21:48.841Z,64.43
2023-04-22T09:24:17.630Z,64.73
2023-04-22T09:26:45.293Z,64.64
2023-04-22T09:29:16.928Z,64.85
2023-04-22T09:31:50.394Z,64.86
2023-04-22T09:34:18.075Z,64.77
2023-04-22T09:36:46.756Z,64.73
2023-04-22T09:39:14.869Z,65.05
2023-04-22T09:41:42.672Z,64.82
2023-04-22T09:44:12.672Z,64.87
2023-04-22T09:46:43.956Z,65.25
2023-04-22T09:49:12.234Z,65.10
2023-04-22T09:51:42.352Z,65.22
2023-04-22T09:54:12.157Z,65.15
2023-04-22T09:56:50.431Z,65.26
2023-04-22T09:59:22.931Z,65.08
2023-04-22T10:01:53.717Z,65.54
2023-04-22T10:04:23.395Z,65.47
2023-04-22T10:06:51.458Z,65.42
2023-04-22T10:09:21.442Z,65.38
2023-04-22T10:11:50.089Z,65.50
2023-04-22T10:14:19.127Z,65.64
2023-04-22T10:16:53.740Z,65.28
2023-04-22T10:19:26.431Z,65.51
2023-04-22T10:22:02.092Z,65.26
2023-04-22T10:24:38.887Z,65.51
2023-04-22T10:27:11.164Z,65.47
2023-04-22T10:29:42.243Z,65.51
2023-04-22T10:32:27.124Z,65.48
2023-04-22T10:35:14.072Z,65.65
2023-04-22T10:37:49.082Z,65.70
2023-04-22T10:40:19.557Z,65.66
2023-04-22T10:42:56.156Z,65.66
2023-04-22T10:45:27.639Z,65.50
2023-04-22T10:47:56.092Z,65.66
2023-04-22T10:50:27.492Z,65.94
2023-04-22T10:52:58.484Z,65.94
2023-04-22T10:55:27.288Z,65.95
2023-04-22T10:57:55.411Z,65.67
2023-04-22T11:00:52.421Z,65.62
2023-04-22T11:03:28.780Z,65.91
2023-04-22T11:06:19.997Z,66.07
2023-04-22T11:08:49.298Z,65.92
2023-04-22T11:11:18.701Z,65.90
2023-04-22T11:13:50.430Z,65.96
2023-04-22T11:16:19.341Z,65.93
2023-04-22T11:18:48.683Z,65.96
2023-04-22T11:21:18.069Z,65.96
2023-04-22T11:23:51.514Z,66.14
2023-04-22T11:26:20.334Z,66.00
2023-04-22T11:28:47.998Z,66.19
2023-04-22T11:31:16.092Z,66.12
2023-04-22T11:33:43.850Z,66.12
2023-04-22T11:36:12.463Z,66.17
2023-04-22T11:38:41.506Z,66.09
2023-04-22T11:41:09.116Z,66.11
2023-04-22T11:43:47.282Z,65.98
2023-04-22T11:46:15.010Z,66.02
2023-04-22T11:48:42.728Z,66.01
2023-04-22T11:51:11.832Z,66.22
2023-04-22T11:53:51.963Z,66.15
2023-04-22T11:56:19.571Z,66.16
2023-04-22T11:58:48.528Z,66.22
2023-04-22T12:01:16.187Z,66.08
2023-04-22T12:03:43.945Z,66.16
2023-04-22T12:06:11.665Z,66.14
2023-04-22T12:08:43.037Z,66.34
2023-04-22T12:11:12.003Z,66.13
2023-04-22T12:13:43.135Z,66.13
2023-04-22T12:16:13.042Z,66.48
2023-04-22T12:18:42.264Z,65.91
2023-04-22T12:21:11.081Z,66.10
2023-04-22T12:23:47.936Z,66.24
2023-04-22T12:26:17.148Z,66.32
2023-04-22T12:28:45.385Z,65.97
2023-04-22T12:31:14.110Z,66.30
2023-04-22T12:33:42.236Z,66.07
2023-04-22T12:36:10.486Z,66.68
2023-04-22T12:38:38.445Z,66.10
2023-04-22T12:41:08.346Z,66.30
2023-04-22T12:43:36.347Z,66.55
2023-04-22T12:46:04.538Z,66.13
2023-04-22T12:48:33.356Z,66.23
2023-04-22T12:51:01.255Z,66.63
2023-04-22T12:53:29.074Z,66.34
2023-04-22T12:55:58.410Z,66.34
2023-04-22T12:58:27.605Z,66.36
2023-04-22T13:00:55.276Z,66.37
2023-04-22T13:03:23.075Z,66.58
2023-04-22T13:05:50.880Z,66.49
2023-04-22T13:08:18.839Z,66.38
2023-04-22T13:10:46.442Z,66.39
2023-04-22T13:13:18.509Z,66.44
2023-04-22T13:15:53.175Z,66.60
2023-04-22T13:18:22.406Z,66.43
2023-04-22T13:20:50.054Z,66.40
2023-04-22T13:23:19.788Z,66.45
2023-04-22T13:25:47.718Z,66.46
2023-04-22T13:28:15.341Z,66.43
2023-04-22T13:30:42.989Z,66.40
2023-04-22T13:33:11.922Z,66.42
2023-04-22T13:35:40.537Z,65.81
2023-04-22T13:38:08.201Z,67.18
2023-04-22T13:40:36.000Z,65.80
2023-04-22T13:43:03.644Z,66.24
2023-04-22T13:45:31.289Z,66.33
2023-04-22T13:47:59.026Z,66.28
2023-04-22T13:50:28.104Z,66.51
2023-04-22T13:52:56.572Z,66.68
2023-04-22T13:55:24.179Z,66.53
2023-04-22T13:57:52.491Z,66.56
2023-04-22T14:00:20.711Z,66.50
2023-04-22T14:02:48.903Z,66.46
2023-04-22T14:05:16.748Z,66.25
2023-04-22T14:07:45.876Z,66.56
2023-04-22T14:10:13.900Z,66.40
2023-04-22T14:12:41.905Z,66.58
2023-04-22T14:15:11.477Z,66.57
2023-04-22T14:17:39.397Z,66.33
2023-04-22T14:20:08.715Z,66.42
2023-04-22T14:22:36.320Z,66.34
2023-04-22T14:25:05.885Z,66.32
2023-04-22T14:27:33.785Z,66.31
2023-04-22T14:30:04.218Z,66.24
2023-04-22T14:32:31.943Z,66.13
2023-04-22T14:34:59.638Z,66.28
2023-04-22T14:37:27.361Z,66.27
2023-04-22T14:39:55.050Z,66.09
2023-04-22T14:42:24.116Z,65.61
2023-04-22T14:44:51.847Z,66.07
2023-04-22T14:47:19.435Z,65.81
2023-04-22T14:49:47.204Z,65.83
2023-04-22T14:52:14.897Z,65.76
2023-04-22T14:54:42.486Z,65.67
2023-04-22T14:57:10.068Z,65.65
2023-04-22T14:59:39.122Z,65.89
2023-04-22T15:02:07.205Z,65.48
2023-04-22T15:04:35.240Z,65.51
2023-04-22T15:07:03.063Z,65.52
2023-04-22T15:09:30.709Z,65.51
2023-04-22T15:11:59.600Z,65.39
2023-04-22T15:14:27.221Z,65.50
2023-04-22T15:16:56.270Z,65.21
2023-04-22T15:19:23.904Z,65.74
2023-04-22T15:21:51.523Z,65.40
2023-04-22T15:24:19.963Z,65.36
2023-04-22T15:26:47.876Z,65.01
2023-04-22T15:29:15.959Z,65.32
2023-04-22T15:31:43.631Z,65.26
2023-04-22T15:34:12.718Z,65.35
2023-04-22T15:36:40.456Z,65.06
2023-04-22T15:39:09.477Z,65.46
2023-04-22T15:41:37.645Z,65.54
2023-04-22T15:44:07.112Z,65.28
2023-04-22T15:46:36.088Z,65.48
2023-04-22T15:49:04.471Z,65.62
2023-04-22T15:51:33.560Z,65.79
2023-04-22T15:54:01.175Z,65.93
2023-04-22T15:56:29.441Z,65.91
2023-04-22T15:58:57.124Z,65.92
2023-04-22T16:01:24.771Z,65.79
2023-04-22T16:03:52.603Z,65.84
2023-04-22T16:06:20.764Z,65.98
2023-04-22T16:08:49.771Z,66.04
2023-04-22T16:11:17.526Z,65.89
2023-04-22T16:13:46.044Z,66.32
2023-04-22T16:16:13.718Z,66.20
2023-04-22T16:18:44.074Z,66.32
2023-04-22T16:21:12.035Z,66.55
2023-04-22T16:23:39.722Z,66.20
2023-04-22T16:26:08.746Z,66.60
2023-04-22T16:28:36.376Z,66.20
2023-04-22T16:31:04.316Z,66.56
2023-04-22T16:33:31.956Z,66.58
2023-04-22T16:35:59.560Z,66.26
2023-04-22T16:38:27.143Z,66.39
2023-04-22T16:40:54.776Z,66.79
2023-04-22T16:43:23.795Z,66.66
2023-04-22T16:45:51.455Z,66.50
2023-04-22T16:48:19.072Z,66.50
2023-04-22T16:50:46.717Z,66.74
2023-04-22T16:53:14.366Z,66.64
2023-04-22T16:55:42.959Z,66.46
2023-04-22T16:58:12.246Z,66.53
2023-04-22T17:00:41.502Z,66.69
2023-04-22T17:03:09.238Z,66.55
2023-04-22T17:05:36.940Z,66.52
2023-04-22T17:08:04.672Z,66.51
2023-04-22T17:10:32.891Z,66.56
2023-04-22T17:13:00.739Z,66.46
2023-04-22T17:15:28.455Z,66.73
2023-04-22T17:17:57.730Z,66.46
2023-04-22T17:20:25.543Z,66.67
2023-04-22T17:22:53.128Z,66.47
2023-04-22T17:25:20.944Z,66.59
2023-04-22T17:27:48.577Z,66.62
2023-04-22T17:30:16.276Z,66.39
2023-04-22T17:32:44.069Z,66.22
2023-04-22T17:35:13.093Z,66.51
2023-04-22T17:37:40.773Z,66.39
2023-04-22T17:40:09.997Z,66.22
2023-04-22T17:42:45.825Z,66.51
2023-04-22T17:45:14.204Z,66.55
2023-04-22T17:47:41.814Z,66.43
2023-04-22T17:50:10.060Z,66.55
2023-04-22T17:52:39.052Z,66.68
2023-04-22T17:55:07.818Z,66.76
2023-04-22T17:57:35.511Z,66.64
2023-04-22T18:00:04.404Z,66.36
2023-04-22T18:02:32.155Z,66.52
2023-04-22T18:04:59.887Z,66.45
2023-04-22T18:07:27.485Z,66.43
2023-04-22T18:09:56.476Z,66.55
2023-04-22T18:12:27.580Z,66.75
2023-04-22T18:14:56.722Z,66.90
2023-04-22T18:17:24.363Z,66.66
2023-04-22T18:19:54.423Z,66.52
2023-04-22T18:22:25.747Z,66.68
2023-04-22T18:24:53.825Z,66.80
2023-04-22T18:27:22.751Z,66.39
2023-04-22T18:29:51.311Z,66.70
2023-04-22T18:32:19.009Z,66.67
2023-04-22T18:34:46.679Z,66.55
2023-04-22T18:37:14.348Z,66.60
2023-04-22T18:39:41.967Z,66.85
2023-04-22T18:42:09.600Z,66.69
2023-04-22T18:44:38.792Z,66.89
2023-04-22T18:47:06.629Z,66.73
2023-04-22T18:49:34.328Z,66.76
2023-04-22T18:52:02.100Z,66.55
2023-04-22T18:54:30.803Z,66.62
2023-04-22T18:56:58.467Z,66.68
2023-04-22T18:59:26.252Z,66.58
2023-04-22T19:01:55.374Z,66.65
2023-04-22T19:04:23.114Z,66.42
2023-04-22T19:06:50.882Z,66.47
2023-04-22T19:09:19.399Z,67.03
2023-04-22T19:11:47.069Z,67.51
2023-04-22T19:14:14.663Z,67.78
2023-04-22T19:16:42.303Z,68.32
2023-04-22T19:19:11.867Z,68.31
2023-04-22T19:21:39.861Z,68.50
2023-04-22T19:24:07.748Z,69.15
2023-04-22T19:26:35.378Z,68.64
2023-04-22T19:29:03.330Z,68.30
2023-04-22T19:31:31.467Z,68.48
2023-04-22T19:33:59.355Z,68.61
2023-04-22T19:36:28.365Z,68.76
2023-04-22T19:38:55.992Z,68.58
2023-04-22T19:41:24.009Z,68.69
2023-04-22T19:43:51.823Z,68.49
2023-04-22T19:46:19.430Z,68.69
2023-04-22T19:48:49.009Z,68.35
2023-04-22T19:51:16.952Z,68.36
2023-04-22T19:53:46.445Z,68.33
2023-04-22T19:56:16.408Z,68.08
2023-04-22T19:58:44.757Z,68.33
2023-04-22T20:01:12.684Z,68.49
2023-04-22T20:03:41.261Z,68.12
2023-04-22T20:06:09.564Z,68.28
2023-04-22T20:08:41.802Z,68.26
2023-04-22T20:11:11.652Z,68.37
2023-04-22T20:13:40.445Z,68.27
2023-04-22T20:16:09.543Z,67.99
2023-04-22T20:18:37.510Z,68.15
2023-04-22T20:21:06.078Z,68.01
2023-04-22T20:23:34.693Z,68.16
2023-04-22T20:26:04.503Z,68.10
2023-04-22T20:28:44.186Z,68.00
2023-04-22T20:31:12.244Z,68.06
2023-04-22T20:33:40.131Z,68.22
2023-04-22T20:36:08.827Z,68.01
2023-04-22T20:38:37.881Z,67.93
2023-04-22T20:41:06.277Z,67.62
2023-04-22T20:43:36.022Z,67.85
2023-04-22T20:46:03.843Z,67.50
2023-04-22T20:48:31.525Z,67.65
2023-04-22T20:50:59.215Z,67.40
2023-04-22T20:53:28.128Z,67.81
2023-04-22T20:55:55.789Z,67.42
2023-04-22T20:58:23.392Z,67.70
2023-04-22T21:00:52.517Z,67.56
2023-04-22T21:03:23.054Z,67.45
2023-04-22T21:05:52.321Z,67.53
2023-04-22T21:08:23.212Z,67.59
2023-04-22T21:10:53.708Z,67.66
2023-04-22T21:13:22.085Z,67.31
2023-04-22T21:15:56.613Z,67.55
2023-04-22T21:18:26.391Z,67.61
2023-04-22T21:20:54.801Z,67.47
2023-04-22T21:23:24.378Z,67.39
2023-04-22T21:25:54.786Z,67.46
2023-04-22T21:28:23.958Z,67.54
2023-04-22T21:30:52.018Z,67.50
2023-04-22T21:33:21.155Z,67.60
2023-04-22T21:35:48.976Z,67.41
2023-04-22T21:38:16.963Z,67.83
2023-04-22T21:40:44.593Z,67.60
2023-04-22T21:43:12.219Z,67.73
2023-04-22T21:45:39.854Z,67.72
2023-04-22T21:48:07.768Z,67.40
2023-04-22T21:50:37.076Z,67.39
2023-04-22T21:53:04.754Z,67.79
2023-04-22T21:55:32.739Z,67.73
2023-04-22T21:58:00.327Z,67.80
2023-04-22T22:00:28.048Z,67.51
2023-04-22T22:02:55.815Z,67.71
2023-04-22T22:05:23.600Z,67.63
2023-04-22T22:07:52.917Z,67.74
2023-04-22T22:10:20.669Z,67.87
2023-04-22T22:12:48.655Z,67.87
2023-04-22T22:15:16.433Z,67.49
2023-04-22T22:17:44.506Z,67.81
2023-04-22T22:20:14.300Z,67.85
2023-04-22T22:22:43.849Z,67.54
2023-04-22T22:25:14.122Z,67.49
2023-04-22T22:27:45.516Z,67.49
2023-04-22T22:30:13.637Z,67.73
2023-04-22T22:32:41.406Z,67.59
2023-04-22T22:35:10.583Z,67.52
2023-04-22T22:37:38.578Z,67.53
2023-04-22T22:40:08.617Z,67.84
2023-04-22T22:42:37.671Z,67.93
2023-04-22T22:45:06.782Z,67.74
2023-04-22T22:47:34.458Z,67.49
2023-04-22T22:50:02.299Z,67.70
2023-04-22T22:52:30.453Z,67.55
2023-04-22T22:54:58.044Z,67.58
2023-04-22T22:57:26.169Z,67.66
2023-04-22T22:59:55.102Z,67.80
2023-04-22T23:02:22.905Z,67.70
2023-04-22T23:04:50.685Z,67.92
2023-04-22T23:07:18.342Z,67.71
2023-04-22T23:09:45.945Z,67.91
2023-04-22T23:12:13.554Z,68.40
2023-04-22T23:14:41.450Z,68.39
2023-04-22T23:17:10.801Z,68.44
2023-04-22T23:19:39.432Z,68.27
2023-04-22T23:22:07.978Z,68.27
2023-04-22T23:24:36.059Z,68.38
2023-04-22T23:27:04.206Z,68.30
2023-04-22T23:29:32.585Z,68.02
2023-04-22T23:32:04.143Z,68.38
2023-04-22T23:34:35.131Z,68.08
2023-04-22T23:37:05.404Z,68.28
2023-04-22T23:39:33.073Z,68.25
2023-04-22T23:42:01.134Z,68.20
2023-04-22T23:44:28.794Z,68.15
2023-04-22T23:46:56.513Z,68.28
2023-04-22T23:49:24.156Z,68.10
2023-04-22T23:51:53.757Z,68.14
2023-04-22T23:54:21.408Z,68.13
2023-04-22T23:56:49.508Z,68.00
2023-04-22T23:59:17.650Z,68.08
